createdAt,value
2018-10-16T00:01:52.005Z,88.29
2018-10-16T00:06:49.446Z,87.74
2018-10-16T00:11:58.811Z,88.28
2018-10-16T00:16:56.295Z,87.80
2018-10-16T00:21:54.043Z,89.02
2018-10-16T00:27:04.291Z,89.06
2018-10-16T00:32:01.823Z,89.32
2018-10-16T00:36:59.263Z,86.09
2018-10-16T00:41:57.442Z,88.27
2018-10-16T00:46:54.861Z,87.47
2018-10-16T00:51:52.311Z,89.40
2018-10-16T00:56:59.016Z,88.34
2018-10-16T01:01:56.534Z,88.72
2018-10-16T01:06:53.959Z,88.25
2018-10-16T01:11:51.379Z,87.97
2018-10-16T01:16:48.819Z,87.47
2018-10-16T01:21:46.257Z,85.17
2018-10-16T01:26:49.657Z,86.26
2018-10-16T01:31:47.308Z,84.20
2018-10-16T01:36:44.715Z,85.81
2018-10-16T01:41:42.130Z,86.76
2018-10-16T01:46:39.531Z,87.61
2018-10-16T01:51:36.964Z,87.73
2018-10-16T01:56:37.512Z,87.12
2018-10-16T02:01:35.039Z,87.15
2018-10-16T02:06:32.467Z,85.62
2018-10-16T02:11:29.885Z,86.28
2018-10-16T02:16:27.367Z,86.97
2018-10-16T02:21:24.794Z,86.83
2018-10-16T02:26:22.235Z,86.32
2018-10-16T02:31:19.708Z,83.45
2018-10-16T02:36:17.145Z,83.90
2018-10-16T02:41:14.579Z,83.12
2018-10-16T02:46:11.971Z,84.52
2018-10-16T02:51:09.383Z,83.93
2018-10-16T02:56:07.148Z,84.69
2018-10-16T03:01:05.315Z,84.72
2018-10-16T03:06:02.743Z,83.78
2018-10-16T03:11:00.323Z,83.35
2018-10-16T03:15:57.791Z,82.82
2018-10-16T03:20:55.218Z,81.55
2018-10-16T03:25:52.648Z,82.58
2018-10-16T03:30:50.193Z,82.01
2018-10-16T03:35:47.641Z,82.11
2018-10-16T03:40:45.051Z,81.95
2018-10-16T03:45:42.463Z,81.81
2018-10-16T03:50:39.884Z,83.39
2018-10-16T03:55:37.305Z,81.41
2018-10-16T04:00:34.779Z,81.68
2018-10-16T04:05:32.175Z,81.50
2018-10-16T04:10:29.603Z,82.65
2018-10-16T04:15:27.125Z,82.71
2018-10-16T04:20:24.556Z,80.15
2018-10-16T04:25:21.968Z,81.39
2018-10-16T04:30:19.415Z,81.11
2018-10-16T04:35:17.318Z,82.42
2018-10-16T04:40:14.796Z,83.25
2018-10-16T04:45:12.557Z,83.68
2018-10-16T04:50:10.811Z,83.54
2018-10-16T04:55:08.484Z,83.61
2018-10-16T05:00:06.884Z,83.25
2018-10-16T05:05:04.636Z,81.92
2018-10-16T05:10:02.039Z,83.00
2018-10-16T05:14:59.424Z,82.76
2018-10-16T05:19:56.855Z,81.61
2018-10-16T05:24:54.259Z,82.77
2018-10-16T05:29:51.708Z,84.19
2018-10-16T05:34:49.130Z,84.14
2018-10-16T05:39:46.573Z,84.86
2018-10-16T05:44:44.001Z,82.78
2018-10-16T05:49:41.453Z,84.03
2018-10-16T05:54:38.892Z,81.61
2018-10-16T05:59:36.404Z,83.57
2018-10-16T06:04:33.820Z,84.12
2018-10-16T06:09:31.343Z,84.80
2018-10-16T06:14:28.768Z,85.29
2018-10-16T06:19:26.168Z,85.10
2018-10-16T06:24:24.103Z,80.98
2018-10-16T06:29:21.496Z,79.49
2018-10-16T06:34:19.013Z,75.97
2018-10-16T06:39:16.419Z,74.21
2018-10-16T06:44:13.860Z,72.74
2018-10-16T06:49:11.288Z,72.42
2018-10-16T06:54:08.728Z,73.50
2018-10-16T06:59:06.203Z,74.63
2018-10-16T07:04:04.947Z,74.13
2018-10-16T07:09:02.464Z,76.43
2018-10-16T07:13:59.876Z,76.97
2018-10-16T07:18:57.328Z,76.75
2018-10-16T07:23:54.877Z,76.83
2018-10-16T07:28:52.311Z,76.23
2018-10-16T07:33:49.753Z,75.29
2018-10-16T07:38:47.209Z,75.43
2018-10-16T07:43:44.644Z,75.26
2018-10-16T07:48:42.128Z,75.41
2018-10-16T07:53:39.481Z,72.92
2018-10-16T07:58:37.002Z,73.48
2018-10-16T08:03:34.417Z,72.99
2018-10-16T08:08:31.843Z,70.96
2018-10-16T08:13:29.639Z,70.29
2018-10-16T08:18:27.205Z,70.41
2018-10-16T08:23:24.682Z,68.91
2018-10-16T08:28:22.130Z,67.05
2018-10-16T08:33:19.547Z,65.04
2018-10-16T08:39:22.431Z,65.98
2018-10-16T08:44:34.567Z,65.20
2018-10-16T08:49:43.159Z,65.01
2018-10-16T08:54:40.548Z,64.70
2018-10-16T08:59:38.008Z,64.59
2018-10-16T09:04:35.676Z,63.15
2018-10-16T09:09:33.432Z,62.84
2018-10-16T09:14:31.424Z,61.47
2018-10-16T09:19:29.124Z,59.59
2018-10-16T09:24:26.710Z,59.35
2018-10-16T09:29:24.352Z,58.35
2018-10-16T09:34:22.225Z,56.20
2018-10-16T09:39:19.951Z,57.52
2018-10-16T09:44:18.385Z,57.02
2018-10-16T09:49:16.021Z,57.55
2018-10-16T09:54:13.677Z,57.10
2018-10-16T09:59:11.156Z,56.37
2018-10-16T10:04:08.728Z,56.14
2018-10-16T10:09:09.487Z,55.31
2018-10-16T10:14:07.524Z,56.27
2018-10-16T10:19:05.568Z,56.15
2018-10-16T10:24:03.938Z,55.47
2018-10-16T10:29:02.424Z,55.18
2018-10-16T10:34:00.158Z,54.33
2018-10-16T10:38:58.163Z,54.24
2018-10-16T10:43:56.049Z,53.63
2018-10-16T10:48:58.347Z,52.32
2018-10-16T10:54:00.921Z,53.10
2018-10-16T10:59:08.051Z,52.47
2018-10-16T11:04:08.648Z,54.45
2018-10-16T11:09:13.397Z,54.27
2018-10-16T11:14:14.435Z,54.04
2018-10-16T11:19:21.428Z,53.76
2018-10-16T11:24:22.915Z,53.83
2018-10-16T11:29:20.729Z,55.54
2018-10-16T11:34:18.484Z,54.29
2018-10-16T11:39:15.997Z,52.05
2018-10-16T11:44:13.595Z,51.80
2018-10-16T11:49:11.189Z,52.45
2018-10-16T11:54:09.108Z,53.17
2018-10-16T11:59:06.713Z,52.34
2018-10-16T12:04:04.248Z,53.50
2018-10-16T12:09:01.704Z,52.55
2018-10-16T12:13:59.138Z,54.11
2018-10-16T12:19:06.610Z,53.47
2018-10-16T12:24:03.988Z,52.96
2018-10-16T12:29:01.697Z,52.60
2018-10-16T12:33:59.028Z,54.34
2018-10-16T12:38:56.461Z,53.40
2018-10-16T12:43:54.007Z,51.95
2018-10-16T12:48:51.307Z,52.97
2018-10-16T12:53:48.776Z,52.15
2018-10-16T12:58:46.206Z,53.18
2018-10-16T13:03:43.695Z,51.26
2018-10-16T13:08:41.071Z,50.49
2018-10-16T13:13:38.495Z,51.31
2018-10-16T13:18:35.958Z,51.70
2018-10-16T13:23:33.453Z,51.35
2018-10-16T13:28:32.539Z,51.55
2018-10-16T13:33:29.985Z,50.08
2018-10-16T13:38:27.395Z,50.05
2018-10-16T13:43:24.820Z,49.30
2018-10-16T13:48:22.216Z,49.04
2018-10-16T13:53:19.702Z,49.39
2018-10-16T13:58:17.204Z,49.10
2018-10-16T14:03:14.628Z,50.29
2018-10-16T14:13:08.917Z,48.58
2018-10-16T14:18:06.346Z,48.48
2018-10-16T14:23:03.778Z,48.39
2018-10-16T14:28:01.235Z,47.17
2018-10-16T14:32:58.670Z,48.65
2018-10-16T14:37:56.179Z,49.30
2018-10-16T14:42:53.591Z,49.26
2018-10-16T14:47:51.086Z,48.94
2018-10-16T14:52:48.536Z,48.11
2018-10-16T14:57:46.029Z,48.98
2018-10-16T15:02:43.487Z,49.66
2018-10-16T15:07:40.932Z,49.54
2018-10-16T15:12:38.372Z,49.89
2018-10-16T15:17:35.825Z,49.96
2018-10-16T15:22:33.258Z,50.26
2018-10-16T15:27:31.860Z,50.29
2018-10-16T15:32:29.298Z,51.27
2018-10-16T15:37:26.703Z,51.13
2018-10-16T15:42:24.196Z,51.89
2018-10-16T15:47:21.627Z,53.35
2018-10-16T15:52:19.143Z,53.71
2018-10-16T15:57:21.223Z,53.87
2018-10-16T16:02:18.734Z,54.05
2018-10-16T16:07:16.144Z,55.89
2018-10-16T16:12:13.661Z,58.63
2018-10-16T16:17:11.107Z,59.55
2018-10-16T16:22:08.623Z,60.57
2018-10-16T16:27:07.374Z,60.96
2018-10-16T16:32:05.062Z,62.95
2018-10-16T16:37:02.496Z,63.21
2018-10-16T16:41:59.976Z,63.62
2018-10-16T16:46:57.468Z,64.15
2018-10-16T16:51:54.887Z,65.94
2018-10-16T17:02:05.966Z,66.12
2018-10-16T17:07:03.391Z,67.95
2018-10-16T17:12:00.854Z,68.24
2018-10-16T17:17:00.742Z,69.69
2018-10-16T17:22:03.856Z,69.80
2018-10-16T17:27:05.313Z,70.17
2018-10-16T17:32:08.825Z,70.57
2018-10-16T17:37:09.345Z,71.35
2018-10-16T17:42:15.286Z,71.82
2018-10-16T17:47:13.468Z,70.08
2018-10-16T17:52:11.027Z,70.55
2018-10-16T17:57:22.783Z,71.38
2018-10-16T18:02:20.315Z,71.74
2018-10-16T18:07:18.953Z,71.69
2018-10-16T18:12:17.493Z,73.17
2018-10-16T18:17:14.975Z,73.05
2018-10-16T18:22:12.513Z,73.08
2018-10-16T18:27:15.344Z,74.56
2018-10-16T18:32:12.768Z,72.34
2018-10-16T18:37:10.195Z,73.70
2018-10-16T18:42:07.588Z,74.78
2018-10-16T18:47:05.044Z,76.00
2018-10-16T18:52:02.468Z,76.07
2018-10-16T18:57:08.114Z,74.88
2018-10-16T19:02:05.756Z,75.67
2018-10-16T19:07:03.303Z,76.50
2018-10-16T19:12:00.783Z,76.87
2018-10-16T19:16:58.212Z,77.91
2018-10-16T19:21:55.631Z,78.33
2018-10-16T19:26:56.190Z,77.54
2018-10-16T19:31:53.664Z,77.16
2018-10-16T19:36:51.140Z,78.70
2018-10-16T19:41:48.543Z,78.89
2018-10-16T19:46:48.656Z,79.80
2018-10-16T19:51:51.872Z,79.47
2018-10-16T19:56:55.260Z,79.65
2018-10-16T20:01:53.735Z,78.27
2018-10-16T20:06:52.964Z,76.55
2018-10-16T20:11:50.453Z,76.59
2018-10-16T20:16:47.907Z,76.18
2018-10-16T20:21:45.387Z,77.07
2018-10-16T20:26:57.805Z,75.79
2018-10-16T20:31:55.416Z,77.26
2018-10-16T20:36:52.870Z,78.16
2018-10-16T20:41:50.299Z,79.61
2018-10-16T20:46:47.748Z,79.57
2018-10-16T20:51:45.156Z,80.40
2018-10-16T20:56:54.464Z,81.17
2018-10-16T21:01:51.974Z,80.25
2018-10-16T21:06:49.527Z,80.02
2018-10-16T21:11:46.887Z,80.27
2018-10-16T21:16:44.359Z,82.54
2018-10-16T21:21:41.783Z,82.70
2018-10-16T21:26:40.155Z,83.29
2018-10-16T21:31:37.611Z,83.90
2018-10-16T21:36:35.027Z,82.87
2018-10-16T21:41:32.425Z,81.47
2018-10-16T21:46:29.865Z,80.94
2018-10-16T21:51:27.263Z,81.69
2018-10-16T21:56:24.740Z,82.07
2018-10-16T22:01:26.782Z,82.30
2018-10-16T22:06:24.218Z,82.99
2018-10-16T22:11:23.931Z,83.85
2018-10-16T22:16:21.354Z,83.74
2018-10-16T22:21:18.759Z,84.73
2018-10-16T22:26:16.152Z,85.02
2018-10-16T22:31:14.183Z,85.42
2018-10-16T22:36:11.750Z,85.20
2018-10-16T22:41:09.263Z,85.75
2018-10-16T22:46:06.616Z,84.59
2018-10-16T22:51:04.099Z,84.69
2018-10-16T22:56:01.564Z,85.85
2018-10-16T23:00:59.102Z,86.52
2018-10-16T23:05:56.483Z,87.36
2018-10-16T23:10:53.914Z,86.93
2018-10-16T23:15:51.313Z,87.38
2018-10-16T23:20:48.735Z,88.19
2018-10-16T23:25:46.123Z,87.97
2018-10-16T23:30:43.547Z,88.51
2018-10-16T23:35:40.943Z,88.66
2018-10-16T23:40:38.347Z,89.03
2018-10-16T23:45:35.759Z,88.62
2018-10-16T23:50:33.199Z,89.01
2018-10-16T23:55:30.602Z,88.02
